createdAt,value
2022-09-20T00:01:38.410Z,23.70
2022-09-20T00:04:09.503Z,23.60
2022-09-20T00:06:39.709Z,23.60
2022-09-20T00:09:09.686Z,23.60
2022-09-20T00:11:40.417Z,23.70
2022-09-20T00:14:11.077Z,23.70
2022-09-20T00:16:42.171Z,23.70
2022-09-20T00:19:23.035Z,23.70
2022-09-20T00:21:52.986Z,23.60
2022-09-20T00:24:22.877Z,23.70
2022-09-20T00:26:52.940Z,23.70
2022-09-20T00:29:22.973Z,23.70
2022-09-20T00:31:52.952Z,23.70
2022-09-20T00:34:40.901Z,23.70
2022-09-20T00:37:10.844Z,23.70
2022-09-20T00:39:40.757Z,23.70
2022-09-20T00:42:15.153Z,23.60
2022-09-20T00:44:46.737Z,23.70
2022-09-20T00:47:22.110Z,23.70
2022-09-20T00:49:53.352Z,23.80
2022-09-20T00:52:24.255Z,23.70
2022-09-20T00:54:54.431Z,23.70
2022-09-20T00:57:24.845Z,23.80
2022-09-20T00:59:54.955Z,23.80
2022-09-20T01:02:29.933Z,23.80
2022-09-20T01:05:00.596Z,23.80
2022-09-20T01:07:31.208Z,23.90
2022-09-20T01:10:01.460Z,24.00
2022-09-20T01:12:36.651Z,24.20
2022-09-20T01:15:07.280Z,24.10
2022-09-20T01:17:39.024Z,24.10
2022-09-20T01:20:30.585Z,24.10
2022-09-20T01:23:01.379Z,24.10
2022-09-20T01:25:55.747Z,24.10
2022-09-20T01:28:25.734Z,24.20
2022-09-20T01:31:22.798Z,24.20
2022-09-20T01:34:05.565Z,24.20
2022-09-20T01:36:50.459Z,24.20
2022-09-20T01:39:42.512Z,24.10
2022-09-20T01:42:14.671Z,24.20
2022-09-20T01:45:20.417Z,24.20
2022-09-20T01:48:13.473Z,24.20
2022-09-20T01:51:10.355Z,24.20
2022-09-20T01:54:13.811Z,24.20
2022-09-20T01:56:52.947Z,24.20
2022-09-20T01:59:44.366Z,24.20
2022-09-20T02:02:17.170Z,24.20
2022-09-20T02:04:58.495Z,24.20
2022-09-20T02:07:55.537Z,24.30
2022-09-20T02:10:51.442Z,24.30
2022-09-20T02:13:49.354Z,24.30
2022-09-20T02:16:47.747Z,24.30
2022-09-20T02:19:52.138Z,24.40
2022-09-20T02:22:40.605Z,24.30
2022-09-20T02:25:14.024Z,24.30
2022-09-20T02:28:03.724Z,24.30
2022-09-20T02:30:56.922Z,24.40
2022-09-20T02:33:44.874Z,18.50
2022-09-20T02:36:45.004Z,14.90
2022-09-20T02:39:24.891Z,18.40
2022-09-20T02:42:03.221Z,21.50
2022-09-20T02:44:57.022Z,22.70
2022-09-20T02:47:40.484Z,23.30
2022-09-20T02:50:48.619Z,23.60
2022-09-20T02:53:29.847Z,23.80
2022-09-20T02:56:19.202Z,23.90
2022-09-20T02:59:09.946Z,24.00
2022-09-20T03:01:46.251Z,24.10
2022-09-20T03:04:25.002Z,24.10
2022-09-20T03:07:33.183Z,24.20
2022-09-20T03:10:24.166Z,24.20
2022-09-20T03:12:57.131Z,24.30
2022-09-20T03:15:35.929Z,24.30
2022-09-20T03:18:15.462Z,24.30
2022-09-20T03:21:19.082Z,24.30
2022-09-20T03:24:20.035Z,24.30
2022-09-20T03:27:00.742Z,24.30
2022-09-20T03:29:42.810Z,24.40
2022-09-20T03:32:45.026Z,24.40
2022-09-20T03:35:39.551Z,24.50
2022-09-20T03:38:28.932Z,24.60
2022-09-20T03:41:02.192Z,24.60
2022-09-20T03:43:38.249Z,24.60
2022-09-20T03:46:11.417Z,24.60
2022-09-20T03:49:18.010Z,24.70
2022-09-20T03:51:48.783Z,24.70
2022-09-20T03:54:37.921Z,24.80
2022-09-20T03:57:36.776Z,24.80
2022-09-20T04:00:24.763Z,24.80
2022-09-20T04:03:10.420Z,24.90
2022-09-20T04:05:58.780Z,24.90
2022-09-20T04:08:40.880Z,24.90
2022-09-20T04:11:32.466Z,24.90
2022-09-20T04:14:14.065Z,24.90
2022-09-20T04:16:51.375Z,24.90
2022-09-20T04:19:32.190Z,25.00
2022-09-20T04:22:03.575Z,25.00
2022-09-20T04:25:14.092Z,25.10
2022-09-20T04:27:48.377Z,25.10
2022-09-20T04:30:23.475Z,25.10
2022-09-20T04:33:17.980Z,25.20
2022-09-20T04:36:25.096Z,25.20
2022-09-20T04:39:18.197Z,25.20
2022-09-20T04:41:50.961Z,25.20
2022-09-20T04:44:24.325Z,25.30
2022-09-20T04:47:27.664Z,25.30
2022-09-20T04:50:12.356Z,25.40
2022-09-20T04:52:48.656Z,25.40
2022-09-20T04:55:50.891Z,25.40
2022-09-20T04:58:39.517Z,25.50
2022-09-20T05:01:18.789Z,25.50
2022-09-20T05:03:57.501Z,25.50
2022-09-20T05:06:40.411Z,25.50
2022-09-20T05:09:29.399Z,25.60
2022-09-20T05:12:36.700Z,25.60
2022-09-20T05:15:09.321Z,25.70
2022-09-20T05:17:38.819Z,25.70
2022-09-20T05:20:55.597Z,25.70
2022-09-20T05:23:32.609Z,25.80
2022-09-20T05:26:57.812Z,25.80
2022-09-20T05:29:43.624Z,25.90
2022-09-20T05:32:49.709Z,25.90
2022-09-20T05:35:25.660Z,25.90
2022-09-20T05:38:05.926Z,26.00
2022-09-20T05:40:40.677Z,26.10
2022-09-20T05:43:34.453Z,26.10
2022-09-20T05:46:58.267Z,26.10
2022-09-20T05:49:37.755Z,26.10
2022-09-20T05:52:28.307Z,26.20
2022-09-20T05:55:22.576Z,26.20
2022-09-20T05:58:38.144Z,26.30
2022-09-20T06:01:22.564Z,26.30
2022-09-20T06:04:19.776Z,26.30
2022-09-20T06:07:16.836Z,26.30
2022-09-20T06:10:18.370Z,26.40
2022-09-20T06:13:21.845Z,26.40
2022-09-20T06:15:59.471Z,26.50
2022-09-20T06:18:32.939Z,26.50
2022-09-20T06:21:42.302Z,26.90
2022-09-20T06:24:26.677Z,28.10
2022-09-20T06:26:56.871Z,30.60
2022-09-20T06:29:32.607Z,31.90
2022-09-20T06:32:02.755Z,32.70
2022-09-20T06:34:32.717Z,33.20
2022-09-20T06:37:52.674Z,33.50
2022-09-20T06:41:03.704Z,33.80
2022-09-20T06:43:33.691Z,34.00
2022-09-20T06:46:03.679Z,34.10
2022-09-20T06:48:33.600Z,34.20
2022-09-20T06:51:03.841Z,34.30
2022-09-20T06:53:34.258Z,34.30
2022-09-20T06:56:04.352Z,34.40
2022-09-20T06:58:34.350Z,34.40
2022-09-20T07:01:04.595Z,34.50
2022-09-20T07:03:34.680Z,34.70
2022-09-20T07:06:05.608Z,34.70
2022-09-20T07:08:35.718Z,34.60
2022-09-20T07:11:07.331Z,34.60
2022-09-20T07:13:37.838Z,34.60
2022-09-20T07:16:09.391Z,34.70
2022-09-20T07:18:39.511Z,34.50
2022-09-20T07:21:14.709Z,34.60
2022-09-20T07:23:47.181Z,34.60
2022-09-20T07:26:24.925Z,34.60
2022-09-20T07:28:55.255Z,34.60
2022-09-20T07:31:26.501Z,34.60
2022-09-20T07:33:56.674Z,34.50
2022-09-20T07:36:26.773Z,34.40
2022-09-20T07:38:57.053Z,34.20
2022-09-20T07:41:33.236Z,34.10
2022-09-20T07:44:22.270Z,34.00
2022-09-20T07:46:53.720Z,34.00
2022-09-20T07:49:23.709Z,34.10
2022-09-20T07:51:55.110Z,34.40
2022-09-20T07:54:24.559Z,34.50
2022-09-20T07:56:54.634Z,34.60
2022-09-20T07:59:25.437Z,34.60
2022-09-20T08:01:55.476Z,34.70
2022-09-20T08:04:25.438Z,35.00
2022-09-20T08:06:55.509Z,35.00
2022-09-20T08:09:25.573Z,34.80
2022-09-20T08:11:58.200Z,34.70
2022-09-20T08:14:28.435Z,34.60
2022-09-20T08:17:00.460Z,34.50
2022-09-20T08:19:31.598Z,34.40
2022-09-20T08:22:01.894Z,34.10
2022-09-20T08:24:31.987Z,33.90
2022-09-20T08:27:02.053Z,33.70
2022-09-20T08:29:32.005Z,33.60
2022-09-20T08:32:03.424Z,33.50
2022-09-20T08:34:33.465Z,33.40
2022-09-20T08:37:03.434Z,33.30
2022-09-20T08:42:33.576Z,33.40
2022-09-20T08:45:22.201Z,33.30
2022-09-20T08:47:58.992Z,33.30
2022-09-20T08:50:30.135Z,33.20
2022-09-20T08:53:00.441Z,33.20
2022-09-20T08:55:37.229Z,33.20
2022-09-20T08:58:08.967Z,33.10
2022-09-20T09:00:41.076Z,33.10
2022-09-20T09:03:14.944Z,33.10
2022-09-20T09:05:56.101Z,33.00
2022-09-20T09:08:39.924Z,33.10
2022-09-20T09:11:14.623Z,33.00
2022-09-20T09:14:03.986Z,33.00
2022-09-20T09:16:37.214Z,33.00
2022-09-20T09:19:49.559Z,32.70
2022-09-20T09:22:26.542Z,32.30
2022-09-20T09:25:35.678Z,31.90
2022-09-20T09:28:08.694Z,31.60
2022-09-20T09:30:40.327Z,31.40
2022-09-20T09:33:31.688Z,31.10
2022-09-20T09:36:09.215Z,30.90
2022-09-20T09:38:45.782Z,30.60
2022-09-20T09:41:27.551Z,30.50
2022-09-20T09:44:10.806Z,30.40
2022-09-20T09:46:44.089Z,30.20
2022-09-20T09:49:18.312Z,30.10
2022-09-20T09:52:25.896Z,29.90
2022-09-20T09:55:04.578Z,29.80
2022-09-20T09:57:50.039Z,29.60
2022-09-20T10:00:22.866Z,29.50
2022-09-20T10:03:07.665Z,29.40
2022-09-20T10:05:47.980Z,29.30
2022-09-20T10:08:39.029Z,29.20
2022-09-20T10:11:45.176Z,29.10
2022-09-20T10:14:24.472Z,29.00
2022-09-20T10:17:02.574Z,28.80
2022-09-20T10:19:58.881Z,28.80
2022-09-20T10:22:35.462Z,28.70
2022-09-20T10:25:25.197Z,28.70
2022-09-20T10:28:25.974Z,28.60
2022-09-20T10:31:25.776Z,28.60
2022-09-20T10:34:15.380Z,28.50
2022-09-20T10:36:53.726Z,28.40
2022-09-20T10:39:37.787Z,28.40
2022-09-20T10:43:04.491Z,28.40
2022-09-20T10:48:36.517Z,28.30
2022-09-20T10:51:16.052Z,28.20
2022-09-20T10:53:45.959Z,28.10
2022-09-20T10:56:26.291Z,28.10
2022-09-20T10:59:32.702Z,28.00
2022-09-20T11:02:17.796Z,27.90
2022-09-20T11:05:24.421Z,27.80
2022-09-20T11:08:02.802Z,27.80
2022-09-20T11:10:50.669Z,27.80
2022-09-20T11:13:32.531Z,27.70
2022-09-20T11:16:18.509Z,27.60
2022-09-20T11:19:05.092Z,27.60
2022-09-20T11:21:40.595Z,27.60
2022-09-20T11:24:28.340Z,27.60
2022-09-20T11:27:26.408Z,27.50
2022-09-20T11:30:06.179Z,27.50
2022-09-20T11:32:51.528Z,27.40
2022-09-20T11:35:47.605Z,27.40
2022-09-20T11:38:26.165Z,27.40
2022-09-20T11:41:03.667Z,27.30
2022-09-20T11:43:33.798Z,27.30
2022-09-20T11:46:08.428Z,27.30
2022-09-20T11:48:46.030Z,27.30
2022-09-20T11:51:25.822Z,27.20
2022-09-20T11:54:30.535Z,27.20
2022-09-20T11:57:01.877Z,27.20
2022-09-20T11:59:35.732Z,27.20
2022-09-20T12:02:35.120Z,27.20
2022-09-20T12:05:08.756Z,27.10
2022-09-20T12:07:41.020Z,27.10
2022-09-20T12:10:26.684Z,27.10
2022-09-20T12:13:10.935Z,27.10
2022-09-20T12:15:41.616Z,27.00
2022-09-20T12:18:31.462Z,27.00
2022-09-20T12:21:07.056Z,27.00
2022-09-20T12:23:43.523Z,27.00
2022-09-20T12:26:22.866Z,26.90
2022-09-20T12:29:26.690Z,26.90
2022-09-20T12:31:57.531Z,26.90
2022-09-20T12:34:27.576Z,26.90
2022-09-20T12:36:57.575Z,26.80
2022-09-20T12:39:54.363Z,26.80
2022-09-20T12:42:32.586Z,26.80
2022-09-20T12:45:24.829Z,26.80
2022-09-20T12:47:55.964Z,26.80
2022-09-20T12:50:44.104Z,26.80
2022-09-20T12:53:17.863Z,26.80
2022-09-20T12:56:07.812Z,26.70
2022-09-20T12:58:53.349Z,26.80
2022-09-20T13:01:23.670Z,26.80
2022-09-20T13:03:53.665Z,26.70
2022-09-20T13:06:25.426Z,26.70
2022-09-20T13:09:07.850Z,26.70
2022-09-20T13:11:42.165Z,26.70
2022-09-20T13:14:16.244Z,26.70
2022-09-20T13:16:52.441Z,26.70
2022-09-20T13:19:29.956Z,26.70
2022-09-20T13:22:00.129Z,26.60
2022-09-20T13:24:43.840Z,26.60
2022-09-20T13:27:36.188Z,26.60
2022-09-20T13:30:21.893Z,26.60
2022-09-20T13:32:52.636Z,26.60
2022-09-20T13:35:25.149Z,26.60
2022-09-20T13:37:56.500Z,26.60
2022-09-20T13:40:40.125Z,26.60
2022-09-20T13:43:24.436Z,26.50
2022-09-20T13:45:59.409Z,26.50
2022-09-20T13:48:29.946Z,26.60
2022-09-20T13:51:00.181Z,26.50
2022-09-20T13:53:47.118Z,26.50
2022-09-20T13:56:37.239Z,26.50
2022-09-20T13:59:07.220Z,26.50
2022-09-20T14:01:37.244Z,26.50
2022-09-20T14:04:18.087Z,26.50
2022-09-20T14:06:49.089Z,26.40
2022-09-20T14:09:29.949Z,26.50
2022-09-20T14:12:00.319Z,26.40
2022-09-20T14:14:30.203Z,26.40
2022-09-20T14:17:00.257Z,26.40
2022-09-20T14:19:43.583Z,26.40
2022-09-20T14:22:29.239Z,26.40
2022-09-20T14:25:23.418Z,26.40
2022-09-20T14:28:22.831Z,26.30
2022-09-20T14:31:05.803Z,26.40
2022-09-20T14:33:37.242Z,26.30
2022-09-20T14:36:07.482Z,26.30
2022-09-20T14:38:37.654Z,26.30
2022-09-20T14:41:07.697Z,26.20
2022-09-20T14:43:37.818Z,26.20
2022-09-20T14:46:18.185Z,26.20
2022-09-20T14:48:48.382Z,26.20
2022-09-20T14:51:20.656Z,26.20
2022-09-20T14:53:55.173Z,26.20
2022-09-20T14:56:33.877Z,26.20
2022-09-20T14:59:05.163Z,26.20
2022-09-20T15:01:36.521Z,26.20
2022-09-20T15:04:16.332Z,26.10
2022-09-20T15:06:46.369Z,26.10
2022-09-20T15:09:16.862Z,26.10
2022-09-20T15:11:47.058Z,26.10
2022-09-20T15:14:17.330Z,26.10
2022-09-20T15:16:47.916Z,26.10
2022-09-20T15:19:17.927Z,26.10
2022-09-20T15:21:48.212Z,26.00
2022-09-20T15:24:21.846Z,26.10
2022-09-20T15:26:51.835Z,26.00
2022-09-20T15:29:21.785Z,26.00
2022-09-20T15:31:51.818Z,26.00
2022-09-20T15:34:21.799Z,26.00
2022-09-20T15:36:52.235Z,26.00
2022-09-20T15:39:23.649Z,26.00
2022-09-20T15:41:56.493Z,26.00
2022-09-20T15:44:26.810Z,25.90
2022-09-20T15:46:57.006Z,25.90
2022-09-20T15:49:28.013Z,25.90
2022-09-20T15:51:58.401Z,25.90
2022-09-20T15:54:28.540Z,25.90
2022-09-20T15:56:59.580Z,25.80
2022-09-20T15:59:30.502Z,25.90
2022-09-20T16:02:01.030Z,25.80
2022-09-20T16:04:35.886Z,25.80
2022-09-20T16:07:07.598Z,25.80
2022-09-20T16:09:40.128Z,25.80
2022-09-20T16:12:10.462Z,25.80
2022-09-20T16:14:40.350Z,25.80
2022-09-20T16:17:10.280Z,25.70
2022-09-20T16:19:41.046Z,25.70
2022-09-20T16:22:11.048Z,25.70
2022-09-20T16:24:41.040Z,25.70
2022-09-20T16:27:11.673Z,25.60
2022-09-20T16:29:41.588Z,25.70
2022-09-20T16:32:11.591Z,25.60
2022-09-20T16:34:41.580Z,25.60
2022-09-20T16:37:18.200Z,25.60
2022-09-20T16:39:48.289Z,25.60
2022-09-20T16:42:18.308Z,25.60
2022-09-20T16:44:48.593Z,25.60
2022-09-20T16:47:26.407Z,25.50
2022-09-20T16:49:57.029Z,25.50
2022-09-20T16:52:27.654Z,25.50
2022-09-20T16:54:57.764Z,25.50
2022-09-20T16:57:27.688Z,25.50
2022-09-20T16:59:57.663Z,25.50
2022-09-20T17:02:27.579Z,25.40
2022-09-20T17:04:57.534Z,25.50
2022-09-20T17:07:27.457Z,25.50
2022-09-20T17:10:02.415Z,25.50
2022-09-20T17:12:35.081Z,25.50
2022-09-20T17:15:05.280Z,25.50
2022-09-20T17:17:35.355Z,25.40
2022-09-20T17:20:06.560Z,25.40
2022-09-20T17:22:36.574Z,25.40
2022-09-20T17:25:07.074Z,25.40
2022-09-20T17:27:40.407Z,25.40
2022-09-20T17:30:11.350Z,25.40
2022-09-20T17:32:41.331Z,25.30
2022-09-20T17:35:11.422Z,25.40
2022-09-20T17:37:41.960Z,25.30
2022-09-20T17:40:12.305Z,25.40
2022-09-20T17:42:42.772Z,25.30
2022-09-20T17:45:12.910Z,25.30
2022-09-20T17:47:45.714Z,25.30
2022-09-20T17:50:16.474Z,25.30
2022-09-20T17:52:47.587Z,25.30
2022-09-20T17:55:17.632Z,25.30
2022-09-20T17:57:47.585Z,25.20
2022-09-20T18:00:17.562Z,25.20
2022-09-20T18:02:47.488Z,25.20
2022-09-20T18:05:17.771Z,25.20
2022-09-20T18:07:47.698Z,25.20
2022-09-20T18:10:17.701Z,25.20
2022-09-20T18:12:47.883Z,25.20
2022-09-20T18:15:17.947Z,25.20
2022-09-20T18:17:51.290Z,25.20
2022-09-20T18:20:24.037Z,25.20
2022-09-20T18:22:53.985Z,25.20
2022-09-20T18:25:25.200Z,25.20
2022-09-20T18:27:55.419Z,25.20
2022-09-20T18:30:25.353Z,25.20
2022-09-20T18:32:55.426Z,25.10
2022-09-20T18:35:26.269Z,25.10
2022-09-20T18:37:56.139Z,25.20
2022-09-20T18:40:26.116Z,25.10
2022-09-20T18:43:04.335Z,25.20
2022-09-20T18:45:35.864Z,25.20
2022-09-20T18:48:05.915Z,25.10
2022-09-20T18:50:35.817Z,25.10
2022-09-20T18:53:05.766Z,25.10
2022-09-20T18:55:36.423Z,25.10
2022-09-20T18:58:06.627Z,25.10
2022-09-20T19:00:36.695Z,25.10
2022-09-20T19:03:10.340Z,25.10
2022-09-20T19:05:45.131Z,25.10
2022-09-20T19:08:35.388Z,25.10
2022-09-20T19:11:11.372Z,25.00
2022-09-20T19:13:54.063Z,25.10
2022-09-20T19:16:38.092Z,25.10
2022-09-20T19:19:10.936Z,25.10
2022-09-20T19:21:49.917Z,25.10
2022-09-20T19:24:44.271Z,25.10
2022-09-20T19:27:14.889Z,25.10
2022-09-20T19:29:45.228Z,25.10
2022-09-20T19:32:22.276Z,25.10
2022-09-20T19:35:02.713Z,25.10
2022-09-20T19:37:42.830Z,25.00
2022-09-20T19:40:36.716Z,25.00
2022-09-20T19:43:33.154Z,25.00
2022-09-20T19:46:47.654Z,25.10
2022-09-20T19:49:20.405Z,25.10
2022-09-20T19:51:49.939Z,25.10
2022-09-20T19:54:20.167Z,25.10
2022-09-20T19:56:57.040Z,25.10
2022-09-20T19:59:28.321Z,25.10
2022-09-20T20:01:59.658Z,25.10
2022-09-20T20:04:29.750Z,25.10
2022-09-20T20:07:05.636Z,25.00
2022-09-20T20:10:10.424Z,25.00
2022-09-20T20:12:46.340Z,25.00
2022-09-20T20:15:40.548Z,25.00
2022-09-20T20:18:16.842Z,25.00
2022-09-20T20:20:49.407Z,25.00
2022-09-20T20:23:40.889Z,25.10
2022-09-20T20:26:23.716Z,25.10
2022-09-20T20:28:54.491Z,25.00
2022-09-20T20:31:24.564Z,25.00
2022-09-20T20:33:55.932Z,25.00
2022-09-20T20:36:25.893Z,25.10
2022-09-20T20:38:56.275Z,25.00
2022-09-20T20:41:26.229Z,25.00
2022-09-20T20:43:57.416Z,25.00
2022-09-20T20:46:27.644Z,25.10
2022-09-20T20:48:58.555Z,25.10
2022-09-20T20:51:29.310Z,25.00
2022-09-20T20:53:59.403Z,25.10
2022-09-20T20:56:31.102Z,25.00
2022-09-20T20:59:01.933Z,25.10
2022-09-20T21:01:34.698Z,25.10
2022-09-20T21:04:06.089Z,25.10
2022-09-20T21:06:37.312Z,25.10
2022-09-20T21:09:07.359Z,25.00
2022-09-20T21:11:45.317Z,25.10
2022-09-20T21:14:16.904Z,25.10
2022-09-20T21:16:47.750Z,25.10
2022-09-20T21:19:19.349Z,25.10
2022-09-20T21:21:49.402Z,25.10
2022-09-20T21:24:19.467Z,25.10
2022-09-20T21:26:49.696Z,25.10
2022-09-20T21:29:20.820Z,25.10
2022-09-20T21:31:51.901Z,25.10
2022-09-20T21:34:22.415Z,25.20
2022-09-20T21:36:52.456Z,25.10
2022-09-20T21:39:22.380Z,25.20
2022-09-20T21:41:53.645Z,25.10
2022-09-20T21:44:24.142Z,25.10
2022-09-20T21:46:54.124Z,25.10
2022-09-20T21:49:24.614Z,25.10
2022-09-20T21:51:55.173Z,25.10
2022-09-20T21:54:25.348Z,25.10
2022-09-20T21:56:57.084Z,25.10
2022-09-20T21:59:28.042Z,25.10
2022-09-20T22:01:59.791Z,25.10
2022-09-20T22:04:30.666Z,25.10
2022-09-20T22:07:01.276Z,25.10
2022-09-20T22:09:31.320Z,25.10
2022-09-20T22:12:01.907Z,25.20
2022-09-20T22:14:32.071Z,25.10
2022-09-20T22:17:02.035Z,25.10
2022-09-20T22:19:33.263Z,25.10
2022-09-20T22:22:04.574Z,25.10
2022-09-20T22:24:34.982Z,25.10
2022-09-20T22:27:05.300Z,25.10
2022-09-20T22:29:35.318Z,25.10
2022-09-20T22:32:05.944Z,25.10
2022-09-20T22:34:36.765Z,25.10
2022-09-20T22:37:06.906Z,25.10
2022-09-20T22:39:36.864Z,25.10
2022-09-20T22:42:07.341Z,25.10
2022-09-20T22:44:37.295Z,25.10
2022-09-20T22:47:07.355Z,25.10
2022-09-20T22:49:37.714Z,25.10
2022-09-20T22:52:07.728Z,25.00
2022-09-20T22:54:37.730Z,25.00
2022-09-20T22:57:07.818Z,25.00
2022-09-20T22:59:37.786Z,25.00
2022-09-20T23:02:07.770Z,25.00
2022-09-20T23:04:38.125Z,25.00
2022-09-20T23:07:08.264Z,25.00
2022-09-20T23:09:38.220Z,25.00
2022-09-20T23:12:08.502Z,25.00
2022-09-20T23:14:38.565Z,25.00
2022-09-20T23:17:08.594Z,25.00
2022-09-20T23:19:38.597Z,25.00
2022-09-20T23:22:08.535Z,25.00
2022-09-20T23:24:38.551Z,25.00
2022-09-20T23:27:08.645Z,24.90
2022-09-20T23:29:38.600Z,25.00
2022-09-20T23:32:09.330Z,25.00
2022-09-20T23:34:39.847Z,25.00
2022-09-20T23:37:10.411Z,25.00
2022-09-20T23:39:40.756Z,25.00
2022-09-20T23:42:11.239Z,25.10
2022-09-20T23:44:41.156Z,25.00
2022-09-20T23:47:11.279Z,25.00
2022-09-20T23:49:42.410Z,25.10
2022-09-20T23:52:13.191Z,25.00
2022-09-20T23:54:43.365Z,25.10
2022-09-20T23:57:13.365Z,25.10
2022-09-20T23:59:43.424Z,25.10
